Burlington, Wyoming
Current Conditions -  °F | °C
As of 7:53 PM on Saturday 25 Oct 2014 (Local Time) from KGEY Reporting Station
Clear Clear  
Wind Chill: 63°   Ceiling: Unl
Heat Index: 63°   Visibility: 10mi
Dew Point: 23°   Wind: 8mph
Humidity: 22%   Direction: 150°SSE
Pressure: 29.74"   Gusts: NA
Location:  44.45°N, 108.43°W
Report Text: KGEY 260153Z AUTO 15007KT 10SM CLR 17/M05 A2974 RMK AO2 SLP068 T01721050
Loading
Personal Weather Stations






























Interactive Weather Map
Tropical Storm Tracking
New forecast layout! Learn more

10-Day Weather Forecast

Advertisements
Track Severe Weather on mobile